sensor_id;sensor_type;location;lat;lon;timestamp;pressure;altitude;pressure_sealevel;temperature;humidity
58879;BME280;44660;42.664;23.266;2023-01-26T00:00:46;94940.56;;;-1.64;75.28
58879;BME280;44660;42.664;23.266;2023-01-26T00:03:11;94988.44;;;-1.39;75.51
58879;BME280;44660;42.664;23.266;2023-01-26T00:05:37;94941.88;;;-1.68;75.53
58879;BME280;44660;42.664;23.266;2023-01-26T00:08:02;94986.69;;;-1.30;75.49
58879;BME280;44660;42.664;23.266;2023-01-26T00:10:28;94985.88;;;-1.30;74.97
58879;BME280;44660;42.664;23.266;2023-01-26T00:12:53;94962.28;;;-1.55;74.78
58879;BME280;44660;42.664;23.266;2023-01-26T00:15:19;94996.59;;;-1.34;74.89
58879;BME280;44660;42.664;23.266;2023-01-26T00:17:44;94985.13;;;-1.49;74.89
58879;BME280;44660;42.664;23.266;2023-01-26T00:20:10;94996.44;;;-1.40;74.75
58879;BME280;44660;42.664;23.266;2023-01-26T00:22:36;94970.78;;;-1.53;74.58
58879;BME280;44660;42.664;23.266;2023-01-26T00:25:02;94981.75;;;-1.41;74.25
58879;BME280;44660;42.664;23.266;2023-01-26T00:27:27;94976.50;;;-1.50;74.70
58879;BME280;44660;42.664;23.266;2023-01-26T00:29:52;94986.50;;;-1.37;74.29
58879;BME280;44660;42.664;23.266;2023-01-26T00:32:18;94922.25;;;-1.81;74.21
58879;BME280;44660;42.664;23.266;2023-01-26T00:34:43;94945.66;;;-1.62;74.40
58879;BME280;44660;42.664;23.266;2023-01-26T00:37:09;94921.97;;;-1.77;74.70
58879;BME280;44660;42.664;23.266;2023-01-26T00:39:35;94943.63;;;-1.77;74.83
58879;BME280;44660;42.664;23.266;2023-01-26T00:42:00;94927.00;;;-1.76;74.84
58879;BME280;44660;42.664;23.266;2023-01-26T00:44:35;94940.06;;;-1.68;74.58
58879;BME280;44660;42.664;23.266;2023-01-26T00:47:00;94914.22;;;-1.95;74.82
58879;BME280;44660;42.664;23.266;2023-01-26T00:49:26;94960.34;;;-1.53;74.62
58879;BME280;44660;42.664;23.266;2023-01-26T00:51:51;94933.94;;;-1.58;74.44
58879;BME280;44660;42.664;23.266;2023-01-26T00:54:17;94909.56;;;-1.75;74.28
58879;BME280;44660;42.664;23.266;2023-01-26T00:56:42;94907.56;;;-1.90;74.71
58879;BME280;44660;42.664;23.266;2023-01-26T00:59:07;94962.00;;;-1.52;74.82
58879;BME280;44660;42.664;23.266;2023-01-26T01:01:33;94933.25;;;-1.60;74.14
58879;BME280;44660;42.664;23.266;2023-01-26T01:03:58;94938.13;;;-1.66;74.50
58879;BME280;44660;42.664;23.266;2023-01-26T01:06:24;94918.56;;;-1.70;74.28
58879;BME280;44660;42.664;23.266;2023-01-26T01:08:50;94898.44;;;-1.86;74.34
58879;BME280;44660;42.664;23.266;2023-01-26T01:11:15;94931.13;;;-1.65;74.30
58879;BME280;44660;42.664;23.266;2023-01-26T01:13:41;94846.50;;;-2.22;74.32
58879;BME280;44660;42.664;23.266;2023-01-26T01:16:09;94906.44;;;-1.87;74.02
58879;BME280;44660;42.664;23.266;2023-01-26T01:18:35;94928.47;;;-1.73;74.12
58879;BME280;44660;42.664;23.266;2023-01-26T01:21:07;94914.44;;;-1.81;74.50
58879;BME280;44660;42.664;23.266;2023-01-26T01:23:33;94935.06;;;-1.61;74.21
58879;BME280;44660;42.664;23.266;2023-01-26T01:25:59;94899.91;;;-1.83;74.15
58879;BME280;44660;42.664;23.266;2023-01-26T01:28:25;94939.44;;;-1.70;74.36
58879;BME280;44660;42.664;23.266;2023-01-26T01:30:50;94892.53;;;-2.04;74.21
58879;BME280;44660;42.664;23.266;2023-01-26T01:33:15;94932.56;;;-1.71;74.53
58879;BME280;44660;42.664;23.266;2023-01-26T01:35:41;94925.72;;;-1.72;74.30
58879;BME280;44660;42.664;23.266;2023-01-26T01:38:06;94924.72;;;-1.79;74.43
58879;BME280;44660;42.664;23.266;2023-01-26T01:40:32;94921.28;;;-1.79;74.38
58879;BME280;44660;42.664;23.266;2023-01-26T01:42:57;94870.84;;;-2.05;73.80
58879;BME280;44660;42.664;23.266;2023-01-26T01:47:56;94929.00;;;-1.70;73.95
58879;BME280;44660;42.664;23.266;2023-01-26T01:50:24;94928.03;;;-1.60;73.56
58879;BME280;44660;42.664;23.266;2023-01-26T01:52:50;94906.16;;;-1.68;72.96
58879;BME280;44660;42.664;23.266;2023-01-26T01:55:16;94924.13;;;-1.65;73.27
58879;BME280;44660;42.664;23.266;2023-01-26T01:57:50;94907.44;;;-1.80;73.68
58879;BME280;44660;42.664;23.266;2023-01-26T02:00:20;94910.22;;;-1.73;73.71
58879;BME280;44660;42.664;23.266;2023-01-26T02:02:56;94915.56;;;-1.83;74.12
58879;BME280;44660;42.664;23.266;2023-01-26T02:05:53;94929.34;;;-1.56;73.04
58879;BME280;44660;42.664;23.266;2023-01-26T02:08:25;94914.03;;;-1.51;72.80
58879;BME280;44660;42.664;23.266;2023-01-26T02:10:54;94860.00;;;-1.84;72.78
58879;BME280;44660;42.664;23.266;2023-01-26T02:13:21;94897.22;;;-1.65;72.95
58879;BME280;44660;42.664;23.266;2023-01-26T02:15:48;94887.13;;;-1.60;73.08
58879;BME280;44660;42.664;23.266;2023-01-26T02:18:14;94858.88;;;-1.81;72.64
58879;BME280;44660;42.664;23.266;2023-01-26T02:20:46;94816.56;;;-2.18;72.72
58879;BME280;44660;42.664;23.266;2023-01-26T02:26:02;94840.91;;;-1.84;73.16
58879;BME280;44660;42.664;23.266;2023-01-26T02:28:28;94859.56;;;-1.71;73.31
58879;BME280;44660;42.664;23.266;2023-01-26T02:30:54;94815.31;;;-2.05;73.48
58879;BME280;44660;42.664;23.266;2023-01-26T02:33:25;94868.97;;;-1.78;73.61
58879;BME280;44660;42.664;23.266;2023-01-26T02:35:51;94823.56;;;-2.10;73.17
58879;BME280;44660;42.664;23.266;2023-01-26T02:38:19;94764.78;;;-2.55;73.38
58879;BME280;44660;42.664;23.266;2023-01-26T02:40:57;94856.88;;;-1.95;74.17
58879;BME280;44660;42.664;23.266;2023-01-26T02:43:25;94853.97;;;-1.84;73.75
58879;BME280;44660;42.664;23.266;2023-01-26T02:45:52;94795.19;;;-2.21;73.95
58879;BME280;44660;42.664;23.266;2023-01-26T02:48:18;94842.50;;;-2.00;74.27
58879;BME280;44660;42.664;23.266;2023-01-26T02:51:03;94844.19;;;-1.90;74.18
58879;BME280;44660;42.664;23.266;2023-01-26T02:53:29;94841.72;;;-1.92;74.38
58879;BME280;44660;42.664;23.266;2023-01-26T02:55:55;94847.25;;;-1.95;74.40
58879;BME280;44660;42.664;23.266;2023-01-26T02:58:20;94804.19;;;-2.16;74.20
58879;BME280;44660;42.664;23.266;2023-01-26T03:00:46;94794.09;;;-2.10;74.34
58879;BME280;44660;42.664;23.266;2023-01-26T03:03:18;94825.59;;;-1.95;74.33
58879;BME280;44660;42.664;23.266;2023-01-26T03:05:45;94806.34;;;-2.03;74.36
58879;BME280;44660;42.664;23.266;2023-01-26T03:08:10;94822.84;;;-1.86;74.04
58879;BME280;44660;42.664;23.266;2023-01-26T03:10:36;94826.41;;;-1.87;73.83
58879;BME280;44660;42.664;23.266;2023-01-26T03:13:02;94778.63;;;-2.12;73.62
58879;BME280;44660;42.664;23.266;2023-01-26T03:15:28;94732.44;;;-2.44;73.90
58879;BME280;44660;42.664;23.266;2023-01-26T03:18:13;94785.78;;;-2.14;74.38
58879;BME280;44660;42.664;23.266;2023-01-26T03:21:01;94763.94;;;-2.21;74.28
58879;BME280;44660;42.664;23.266;2023-01-26T03:23:46;94780.88;;;-2.17;74.10
58879;BME280;44660;42.664;23.266;2023-01-26T03:26:50;94721.97;;;-2.53;74.15
58879;BME280;44660;42.664;23.266;2023-01-26T03:29:34;94759.69;;;-2.31;74.21
58879;BME280;44660;42.664;23.266;2023-01-26T03:31:59;94769.38;;;-1.98;73.83
58879;BME280;44660;42.664;23.266;2023-01-26T03:34:25;94803.13;;;-1.88;73.57
58879;BME280;44660;42.664;23.266;2023-01-26T03:36:51;94758.72;;;-2.21;74.20
58879;BME280;44660;42.664;23.266;2023-01-26T03:39:16;94765.78;;;-1.97;73.97
58879;BME280;44660;42.664;23.266;2023-01-26T03:42:01;94780.16;;;-1.85;73.61
58879;BME280;44660;42.664;23.266;2023-01-26T03:44:45;94799.38;;;-1.86;73.36
58879;BME280;44660;42.664;23.266;2023-01-26T03:47:33;94785.84;;;-1.98;73.54
58879;BME280;44660;42.664;23.266;2023-01-26T03:50:18;94731.63;;;-2.45;73.71
58879;BME280;44660;42.664;23.266;2023-01-26T03:53:02;94759.88;;;-2.16;74.00
58879;BME280;44660;42.664;23.266;2023-01-26T03:55:46;94769.66;;;-2.18;73.68
58879;BME280;44660;42.664;23.266;2023-01-26T03:58:30;94763.34;;;-2.07;73.35
58879;BME280;44660;42.664;23.266;2023-01-26T04:00:56;94756.94;;;-2.21;73.20
58879;BME280;44660;42.664;23.266;2023-01-26T04:03:22;94732.38;;;-2.18;73.14
58879;BME280;44660;42.664;23.266;2023-01-26T04:06:06;94778.66;;;-2.04;73.98
58879;BME280;44660;42.664;23.266;2023-01-26T04:08:50;94766.28;;;-1.93;73.18
58879;BME280;44660;42.664;23.266;2023-01-26T04:11:16;94757.47;;;-2.09;73.11
58879;BME280;44660;42.664;23.266;2023-01-26T04:13:41;94755.00;;;-2.10;73.43
58879;BME280;44660;42.664;23.266;2023-01-26T04:16:25;94663.50;;;-2.75;73.42
58879;BME280;44660;42.664;23.266;2023-01-26T04:19:09;94660.91;;;-2.67;73.34
58879;BME280;44660;42.664;23.266;2023-01-26T04:21:53;94700.25;;;-2.19;73.05
58879;BME280;44660;42.664;23.266;2023-01-26T04:24:18;94737.44;;;-1.92;72.81
58879;BME280;44660;42.664;23.266;2023-01-26T04:26:46;94719.38;;;-1.93;72.97
58879;BME280;44660;42.664;23.266;2023-01-26T04:29:14;94686.59;;;-2.13;72.93
58879;BME280;44660;42.664;23.266;2023-01-26T04:31:41;94695.28;;;-1.95;72.98
58879;BME280;44660;42.664;23.266;2023-01-26T04:34:10;94711.03;;;-1.97;72.21
58879;BME280;44660;42.664;23.266;2023-01-26T04:36:37;94722.31;;;-1.97;72.21
58879;BME280;44660;42.664;23.266;2023-01-26T04:39:02;94678.75;;;-2.29;72.57
58879;BME280;44660;42.664;23.266;2023-01-26T04:41:29;94675.00;;;-2.35;72.55
58879;BME280;44660;42.664;23.266;2023-01-26T04:43:54;94715.75;;;-2.01;72.20
58879;BME280;44660;42.664;23.266;2023-01-26T04:46:20;94692.94;;;-2.23;72.07
58879;BME280;44660;42.664;23.266;2023-01-26T04:48:46;94740.19;;;-2.10;72.06
58879;BME280;44660;42.664;23.266;2023-01-26T04:51:14;94745.13;;;-1.90;72.00
58879;BME280;44660;42.664;23.266;2023-01-26T04:53:40;94666.19;;;-2.34;71.57
58879;BME280;44660;42.664;23.266;2023-01-26T04:56:06;94672.75;;;-2.30;71.27
58879;BME280;44660;42.664;23.266;2023-01-26T04:58:33;94739.91;;;-1.90;71.21
58879;BME280;44660;42.664;23.266;2023-01-26T05:00:59;94740.38;;;-1.95;71.21
58879;BME280;44660;42.664;23.266;2023-01-26T05:03:25;94734.38;;;-1.87;70.96
58879;BME280;44660;42.664;23.266;2023-01-26T05:05:53;94739.56;;;-1.87;70.76
58879;BME280;44660;42.664;23.266;2023-01-26T05:08:20;94746.44;;;-1.86;71.31
58879;BME280;44660;42.664;23.266;2023-01-26T05:10:46;94737.94;;;-1.88;70.80
58879;BME280;44660;42.664;23.266;2023-01-26T05:13:12;94717.69;;;-2.11;71.58
58879;BME280;44660;42.664;23.266;2023-01-26T05:15:38;94710.06;;;-2.04;71.46
58879;BME280;44660;42.664;23.266;2023-01-26T05:18:05;94731.13;;;-1.81;71.15
58879;BME280;44660;42.664;23.266;2023-01-26T05:20:31;94726.38;;;-1.86;70.89
58879;BME280;44660;42.664;23.266;2023-01-26T05:22:56;94715.31;;;-1.79;71.06
58879;BME280;44660;42.664;23.266;2023-01-26T05:25:22;94724.59;;;-1.77;70.95
58879;BME280;44660;42.664;23.266;2023-01-26T05:27:48;94735.03;;;-1.69;70.55
58879;BME280;44660;42.664;23.266;2023-01-26T05:30:14;94734.72;;;-1.66;70.47
58879;BME280;44660;42.664;23.266;2023-01-26T05:32:40;94627.94;;;-2.25;71.01
58879;BME280;44660;42.664;23.266;2023-01-26T05:35:06;94695.09;;;-1.86;70.75
58879;BME280;44660;42.664;23.266;2023-01-26T05:37:32;94705.19;;;-1.74;71.04
58879;BME280;44660;42.664;23.266;2023-01-26T05:39:58;94718.09;;;-1.65;71.10
58879;BME280;44660;42.664;23.266;2023-01-26T05:42:24;94702.75;;;-1.84;70.91
58879;BME280;44660;42.664;23.266;2023-01-26T05:44:49;94705.72;;;-1.62;70.71
58879;BME280;44660;42.664;23.266;2023-01-26T05:47:15;94720.34;;;-1.61;70.66
58879;BME280;44660;42.664;23.266;2023-01-26T05:49:41;94706.50;;;-1.70;70.32
58879;BME280;44660;42.664;23.266;2023-01-26T05:52:19;94697.72;;;-1.61;70.31
58879;BME280;44660;42.664;23.266;2023-01-26T05:54:45;94705.72;;;-1.62;70.46
58879;BME280;44660;42.664;23.266;2023-01-26T05:57:11;94708.31;;;-1.71;70.46
58879;BME280;44660;42.664;23.266;2023-01-26T05:59:37;94711.88;;;-1.72;71.08
58879;BME280;44660;42.664;23.266;2023-01-26T06:02:02;94714.34;;;-1.62;70.33
58879;BME280;44660;42.664;23.266;2023-01-26T06:04:28;94714.66;;;-1.57;70.58
58879;BME280;44660;42.664;23.266;2023-01-26T06:06:55;94692.81;;;-1.81;70.65
58879;BME280;44660;42.664;23.266;2023-01-26T06:09:21;94693.00;;;-1.90;70.68
58879;BME280;44660;42.664;23.266;2023-01-26T06:11:47;94676.50;;;-1.91;71.00
58879;BME280;44660;42.664;23.266;2023-01-26T06:14:12;94696.56;;;-1.75;71.01
58879;BME280;44660;42.664;23.266;2023-01-26T06:16:38;94694.94;;;-1.68;70.50
58879;BME280;44660;42.664;23.266;2023-01-26T06:19:04;94711.56;;;-1.52;70.53
58879;BME280;44660;42.664;23.266;2023-01-26T06:21:30;94665.63;;;-1.86;70.36
58879;BME280;44660;42.664;23.266;2023-01-26T06:23:56;94711.72;;;-1.45;70.99
58879;BME280;44660;42.664;23.266;2023-01-26T06:26:22;94695.28;;;-1.46;69.98
58879;BME280;44660;42.664;23.266;2023-01-26T06:28:51;94699.66;;;-1.46;70.30
58879;BME280;44660;42.664;23.266;2023-01-26T06:31:17;94699.81;;;-1.48;70.42
58879;BME280;44660;42.664;23.266;2023-01-26T06:33:43;94651.59;;;-1.77;70.46
58879;BME280;44660;42.664;23.266;2023-01-26T06:36:10;94697.84;;;-1.38;70.77
58879;BME280;44660;42.664;23.266;2023-01-26T06:38:37;94684.31;;;-1.41;70.19
58879;BME280;44660;42.664;23.266;2023-01-26T06:41:05;94684.00;;;-1.38;70.07
58879;BME280;44660;42.664;23.266;2023-01-26T06:43:32;94688.41;;;-1.30;69.92
58879;BME280;44660;42.664;23.266;2023-01-26T06:45:58;94689.06;;;-1.37;69.89
58879;BME280;44660;42.664;23.266;2023-01-26T06:48:27;94644.75;;;-1.78;70.04
58879;BME280;44660;42.664;23.266;2023-01-26T06:51:42;94685.16;;;-1.49;70.12
58879;BME280;44660;42.664;23.266;2023-01-26T06:53:48;94683.53;;;-1.42;70.19
58879;BME280;44660;42.664;23.266;2023-01-26T06:56:15;94663.28;;;-1.40;70.11
58879;BME280;44660;42.664;23.266;2023-01-26T06:58:41;94664.25;;;-1.33;69.76
58879;BME280;44660;42.664;23.266;2023-01-26T07:01:08;94648.47;;;-1.39;69.15
58879;BME280;44660;42.664;23.266;2023-01-26T07:03:34;94657.44;;;-1.42;69.68
58879;BME280;44660;42.664;23.266;2023-01-26T07:05:59;94666.88;;;-1.33;70.07
58879;BME280;44660;42.664;23.266;2023-01-26T07:08:25;94675.50;;;-1.24;70.13
58879;BME280;44660;42.664;23.266;2023-01-26T07:10:50;94632.97;;;-1.49;70.03
58879;BME280;44660;42.664;23.266;2023-01-26T07:13:16;94663.72;;;-1.11;69.58
58879;BME280;44660;42.664;23.266;2023-01-26T07:15:41;94662.56;;;-1.09;69.53
58879;BME280;44660;42.664;23.266;2023-01-26T07:18:07;94649.22;;;-1.22;69.69
58879;BME280;44660;42.664;23.266;2023-01-26T07:20:32;94561.94;;;-1.68;69.45
58879;BME280;44660;42.664;23.266;2023-01-26T07:22:58;94640.88;;;-1.09;69.06
58879;BME280;44660;42.664;23.266;2023-01-26T07:25:25;94599.06;;;-1.41;69.45
58879;BME280;44660;42.664;23.266;2023-01-26T07:27:58;94632.72;;;-1.06;69.79
58879;BME280;44660;42.664;23.266;2023-01-26T07:30:24;94644.56;;;-0.95;69.02
58879;BME280;44660;42.664;23.266;2023-01-26T07:32:50;94648.50;;;-1.00;69.16
58879;BME280;44660;42.664;23.266;2023-01-26T07:35:15;94638.13;;;-1.08;69.28
58879;BME280;44660;42.664;23.266;2023-01-26T07:37:41;94652.72;;;-0.90;69.43
58879;BME280;44660;42.664;23.266;2023-01-26T07:40:07;94649.72;;;-0.79;68.60
58879;BME280;44660;42.664;23.266;2023-01-26T07:42:32;94643.88;;;-0.81;68.85
58879;BME280;44660;42.664;23.266;2023-01-26T07:44:58;94623.50;;;-0.86;68.20
58879;BME280;44660;42.664;23.266;2023-01-26T07:47:24;94648.75;;;-0.78;68.16
58879;BME280;44660;42.664;23.266;2023-01-26T07:49:50;94606.13;;;-1.10;68.00
58879;BME280;44660;42.664;23.266;2023-01-26T07:52:15;94640.25;;;-0.72;68.09
58879;BME280;44660;42.664;23.266;2023-01-26T07:54:41;94594.88;;;-1.10;67.93
58879;BME280;44660;42.664;23.266;2023-01-26T07:57:06;94637.03;;;-0.82;67.63
58879;BME280;44660;42.664;23.266;2023-01-26T07:59:32;94632.13;;;-0.85;67.79
58879;BME280;44660;42.664;23.266;2023-01-26T08:01:58;94602.50;;;-1.01;67.70
58879;BME280;44660;42.664;23.266;2023-01-26T08:04:24;94637.47;;;-0.70;67.95
58879;BME280;44660;42.664;23.266;2023-01-26T08:06:50;94606.53;;;-0.90;67.90
58879;BME280;44660;42.664;23.266;2023-01-26T08:09:16;94636.31;;;-0.68;68.21
58879;BME280;44660;42.664;23.266;2023-01-26T08:11:41;94540.59;;;-1.23;67.79
58879;BME280;44660;42.664;23.266;2023-01-26T08:14:07;94638.22;;;-0.53;67.92
58879;BME280;44660;42.664;23.266;2023-01-26T08:16:32;94628.34;;;-0.43;67.67
58879;BME280;44660;42.664;23.266;2023-01-26T08:18:58;94629.50;;;-0.45;67.62
58879;BME280;44660;42.664;23.266;2023-01-26T08:21:23;94621.91;;;-0.32;67.39
58879;BME280;44660;42.664;23.266;2023-01-26T08:23:49;94606.69;;;-0.28;67.10
58879;BME280;44660;42.664;23.266;2023-01-26T08:26:16;94597.78;;;-0.42;66.82
58879;BME280;44660;42.664;23.266;2023-01-26T08:28:45;94621.09;;;-0.32;67.13
58879;BME280;44660;42.664;23.266;2023-01-26T08:31:17;94615.41;;;-0.36;67.04
58879;BME280;44660;42.664;23.266;2023-01-26T08:33:45;94575.03;;;-0.57;66.75
58879;BME280;44660;42.664;23.266;2023-01-26T08:36:12;94565.97;;;-0.69;66.71
58879;BME280;44660;42.664;23.266;2023-01-26T08:38:38;94537.06;;;-0.68;66.89
58879;BME280;44660;42.664;23.266;2023-01-26T08:41:04;94563.44;;;-0.54;66.99
58879;BME280;44660;42.664;23.266;2023-01-26T08:43:30;94565.56;;;-0.35;66.64
58879;BME280;44660;42.664;23.266;2023-01-26T08:45:55;94586.44;;;-0.26;66.43
58879;BME280;44660;42.664;23.266;2023-01-26T08:48:21;94606.09;;;-0.15;66.39
58879;BME280;44660;42.664;23.266;2023-01-26T08:50:47;94614.09;;;-0.09;65.70
58879;BME280;44660;42.664;23.266;2023-01-26T08:53:12;94619.16;;;-0.15;66.08
58879;BME280;44660;42.664;23.266;2023-01-26T08:55:38;94538.13;;;-0.85;66.24
58879;BME280;44660;42.664;23.266;2023-01-26T08:58:03;94610.94;;;-0.27;66.07
58879;BME280;44660;42.664;23.266;2023-01-26T09:00:29;94597.78;;;-0.19;66.30
58879;BME280;44660;42.664;23.266;2023-01-26T09:02:59;94608.38;;;-0.12;65.95
58879;BME280;44660;42.664;23.266;2023-01-26T09:05:25;94522.50;;;-0.62;65.58
58879;BME280;44660;42.664;23.266;2023-01-26T09:07:50;94608.97;;;-0.02;65.51
58879;BME280;44660;42.664;23.266;2023-01-26T09:10:17;94621.75;;;-0.07;65.54
58879;BME280;44660;42.664;23.266;2023-01-26T09:12:43;94611.81;;;-0.12;65.61
58879;BME280;44660;42.664;23.266;2023-01-26T09:15:08;94608.50;;;-0.06;65.46
58879;BME280;44660;42.664;23.266;2023-01-26T09:17:34;94563.59;;;-0.32;65.47
58879;BME280;44660;42.664;23.266;2023-01-26T09:20:00;94585.03;;;-0.14;65.46
58879;BME280;44660;42.664;23.266;2023-01-26T09:22:25;94585.16;;;-0.07;65.14
58879;BME280;44660;42.664;23.266;2023-01-26T09:24:51;94575.16;;;-0.04;65.17
58879;BME280;44660;42.664;23.266;2023-01-26T09:27:16;94585.94;;;-0.07;65.00
58879;BME280;44660;42.664;23.266;2023-01-26T09:29:42;94588.97;;;0.05;65.26
58879;BME280;44660;42.664;23.266;2023-01-26T09:32:07;94543.31;;;-0.07;64.90
58879;BME280;44660;42.664;23.266;2023-01-26T09:34:33;94525.91;;;-0.15;65.12
58879;BME280;44660;42.664;23.266;2023-01-26T09:37:01;94536.31;;;0.08;65.17
58879;BME280;44660;42.664;23.266;2023-01-26T09:39:27;94531.88;;;0.09;64.71
58879;BME280;44660;42.664;23.266;2023-01-26T09:42:09;94547.28;;;0.04;65.08
58879;BME280;44660;42.664;23.266;2023-01-26T09:44:47;94576.28;;;0.17;65.35
58879;BME280;44660;42.664;23.266;2023-01-26T09:47:28;94577.53;;;0.21;64.72
58879;BME280;44660;42.664;23.266;2023-01-26T09:50:17;94566.53;;;0.11;65.14
58879;BME280;44660;42.664;23.266;2023-01-26T09:53:05;94454.63;;;-0.47;65.29
58879;BME280;44660;42.664;23.266;2023-01-26T09:55:34;94500.09;;;-0.18;65.48
58879;BME280;44660;42.664;23.266;2023-01-26T09:58:04;94513.38;;;-0.05;65.70
58879;BME280;44660;42.664;23.266;2023-01-26T10:00:43;94533.72;;;0.23;65.34
58879;BME280;44660;42.664;23.266;2023-01-26T10:03:22;94527.00;;;0.06;65.15
58879;BME280;44660;42.664;23.266;2023-01-26T10:08:20;94513.19;;;-0.03;65.22
58879;BME280;44660;42.664;23.266;2023-01-26T10:10:58;94540.38;;;0.11;64.96
58879;BME280;44660;42.664;23.266;2023-01-26T10:13:25;94512.72;;;0.17;65.11
58879;BME280;44660;42.664;23.266;2023-01-26T10:15:57;94517.19;;;0.23;64.75
58879;BME280;44660;42.664;23.266;2023-01-26T10:18:30;94540.47;;;0.18;64.97
58879;BME280;44660;42.664;23.266;2023-01-26T10:20:58;94465.88;;;0.07;64.60
58879;BME280;44660;42.664;23.266;2023-01-26T10:23:31;94494.81;;;0.20;64.72
58879;BME280;44660;42.664;23.266;2023-01-26T10:26:16;94466.22;;;0.04;65.05
58879;BME280;44660;42.664;23.266;2023-01-26T10:28:43;94473.47;;;0.17;64.97
58879;BME280;44660;42.664;23.266;2023-01-26T10:31:25;94477.97;;;0.38;64.87
58879;BME280;44660;42.664;23.266;2023-01-26T10:33:54;94459.03;;;0.36;64.73
58879;BME280;44660;42.664;23.266;2023-01-26T10:36:20;94440.53;;;0.37;64.40
58879;BME280;44660;42.664;23.266;2023-01-26T10:38:47;94460.44;;;0.53;64.08
58879;BME280;44660;42.664;23.266;2023-01-26T10:43:42;94415.81;;;0.40;64.30
58879;BME280;44660;42.664;23.266;2023-01-26T10:46:46;94435.97;;;0.61;63.98
58879;BME280;44660;42.664;23.266;2023-01-26T10:49:25;94413.53;;;0.52;64.07
58879;BME280;44660;42.664;23.266;2023-01-26T10:54:31;94417.56;;;0.69;63.37
58879;BME280;44660;42.664;23.266;2023-01-26T10:57:02;94420.56;;;0.66;63.67
58879;BME280;44660;42.664;23.266;2023-01-26T10:59:31;94412.28;;;0.62;63.71
58879;BME280;44660;42.664;23.266;2023-01-26T11:02:00;94352.88;;;0.26;63.53
58879;BME280;44660;42.664;23.266;2023-01-26T11:04:27;94396.84;;;0.53;63.85
58879;BME280;44660;42.664;23.266;2023-01-26T11:06:53;94395.59;;;0.48;63.81
58879;BME280;44660;42.664;23.266;2023-01-26T11:09:27;94384.56;;;0.53;64.31
58879;BME280;44660;42.664;23.266;2023-01-26T11:12:03;94394.78;;;0.48;63.70
58879;BME280;44660;42.664;23.266;2023-01-26T11:14:33;94366.38;;;0.45;64.11
58879;BME280;44660;42.664;23.266;2023-01-26T11:17:15;94346.44;;;0.44;64.20
58879;BME280;44660;42.664;23.266;2023-01-26T11:22:42;94339.28;;;0.53;63.76
58879;BME280;44660;42.664;23.266;2023-01-26T11:25:34;94340.09;;;0.53;63.74
58879;BME280;44660;42.664;23.266;2023-01-26T11:44:45;94334.31;;;0.79;63.43
58879;BME280;44660;42.664;23.266;2023-01-26T11:50:24;94309.69;;;0.52;64.23
58879;BME280;44660;42.664;23.266;2023-01-26T11:58:52;94281.97;;;0.36;64.40
58879;BME280;44660;42.664;23.266;2023-01-26T12:01:35;94275.16;;;0.42;64.26
58879;BME280;44660;42.664;23.266;2023-01-26T12:04:03;94281.31;;;0.34;64.77
58879;BME280;44660;42.664;23.266;2023-01-26T12:06:36;94311.75;;;0.57;64.75
58879;BME280;44660;42.664;23.266;2023-01-26T12:14:24;94287.75;;;0.53;65.12
58879;BME280;44660;42.664;23.266;2023-01-26T12:22:12;94277.03;;;0.70;65.44
58879;BME280;44660;42.664;23.266;2023-01-26T12:24:44;94284.88;;;0.70;65.43
58879;BME280;44660;42.664;23.266;2023-01-26T12:27:22;94253.31;;;0.50;65.46
58879;BME280;44660;42.664;23.266;2023-01-26T12:30:07;94231.25;;;0.37;66.14
58879;BME280;44660;42.664;23.266;2023-01-26T12:32:43;94209.75;;;0.20;66.10
58879;BME280;44660;42.664;23.266;2023-01-26T12:35:10;94217.84;;;0.25;66.54
58879;BME280;44660;42.664;23.266;2023-01-26T12:42:51;94254.22;;;0.42;67.13
58879;BME280;44660;42.664;23.266;2023-01-26T12:45:27;94200.31;;;0.19;66.64
58879;BME280;44660;42.664;23.266;2023-01-26T12:48:03;94223.59;;;0.36;66.86
58879;BME280;44660;42.664;23.266;2023-01-26T12:55:51;94264.09;;;0.61;67.44
58879;BME280;44660;42.664;23.266;2023-01-26T12:58:24;94250.56;;;0.58;67.30
58879;BME280;44660;42.664;23.266;2023-01-26T13:01:02;94252.03;;;0.67;67.17
58879;BME280;44660;42.664;23.266;2023-01-26T13:03:33;94239.97;;;0.66;67.30
58879;BME280;44660;42.664;23.266;2023-01-26T13:11:01;94235.53;;;0.67;67.44
58879;BME280;44660;42.664;23.266;2023-01-26T13:18:49;94238.00;;;0.75;67.65
58879;BME280;44660;42.664;23.266;2023-01-26T13:26:58;94234.47;;;0.83;67.72
58879;BME280;44660;42.664;23.266;2023-01-26T13:34:26;94228.97;;;0.77;67.65
58879;BME280;44660;42.664;23.266;2023-01-26T13:36:58;94217.47;;;0.72;67.83
58879;BME280;44660;42.664;23.266;2023-01-26T13:39:33;94219.84;;;0.67;67.79
58879;BME280;44660;42.664;23.266;2023-01-26T13:42:01;94221.69;;;0.73;68.22
58879;BME280;44660;42.664;23.266;2023-01-26T13:44:40;94199.03;;;0.58;68.03
58879;BME280;44660;42.664;23.266;2023-01-26T13:47:18;94193.94;;;0.50;68.28
58879;BME280;44660;42.664;23.266;2023-01-26T13:49:45;94220.75;;;0.80;68.14
58879;BME280;44660;42.664;23.266;2023-01-26T13:52:21;94223.31;;;0.74;67.94
58879;BME280;44660;42.664;23.266;2023-01-26T13:54:50;94228.31;;;0.69;68.08
58879;BME280;44660;42.664;23.266;2023-01-26T13:57:25;94225.88;;;0.67;68.36
58879;BME280;44660;42.664;23.266;2023-01-26T13:59:58;94207.13;;;0.63;68.11
58879;BME280;44660;42.664;23.266;2023-01-26T14:02:30;94207.94;;;0.64;68.42
58879;BME280;44660;42.664;23.266;2023-01-26T14:04:56;94186.78;;;0.37;68.16
58879;BME280;44660;42.664;23.266;2023-01-26T14:07:25;94190.66;;;0.41;68.38
58879;BME280;44660;42.664;23.266;2023-01-26T14:09:53;94203.25;;;0.59;68.46
58879;BME280;44660;42.664;23.266;2023-01-26T14:12:26;94205.09;;;0.59;68.29
58879;BME280;44660;42.664;23.266;2023-01-26T14:14:54;94212.09;;;0.58;68.21
58879;BME280;44660;42.664;23.266;2023-01-26T14:17:29;94210.06;;;0.54;68.16
58879;BME280;44660;42.664;23.266;2023-01-26T14:19:55;94174.38;;;0.46;67.77
58879;BME280;44660;42.664;23.266;2023-01-26T14:22:22;94107.53;;;0.15;67.39
58879;BME280;44660;42.664;23.266;2023-01-26T14:24:49;94211.03;;;0.74;67.02
58879;BME280;44660;42.664;23.266;2023-01-26T14:27:34;94200.72;;;0.94;66.80